Time;durP1;ratioP1;P1;durP2;ratioP2;P2;SDS_P1;SDS_P2;PMS_P1;PMS_P2;Temp;Humidity;BMP_temperature;BMP_pressure;BME280_temperature;BME280_humidity;BME280_pressure;Samples;Min_cycle;Max_cycle;Signal;HPM_P1;HPM_P2
2023/11/11 00:01:21;;;;;;;20.13;9.45;;;7.00;99.90;;;;;;5070342;28;20102;-84
2023/11/11 00:03:48;;;;;;;17.52;9.27;;;7.00;99.90;;;;;;5106383;28;20489;-84
2023/11/11 00:06:15;;;;;;;17.33;9.35;;;7.00;99.90;;;;;;5070114;28;20493;-83
2023/11/11 00:08:42;;;;;;;22.52;9.82;;;7.00;99.90;;;;;;5103299;28;20037;-84
2023/11/11 00:11:09;;;;;;;23.60;9.95;;;7.00;99.90;;;;;;5070268;28;20090;-83
2023/11/11 00:13:35;;;;;;;22.45;9.95;;;7.00;99.90;;;;;;5070066;28;20033;-83
2023/11/11 00:16:02;;;;;;;24.30;9.98;;;7.00;99.90;;;;;;5060372;28;20042;-84
2023/11/11 00:18:29;;;;;;;23.70;10.25;;;7.00;99.90;;;;;;5071425;28;20037;-83
2023/11/11 00:20:57;;;;;;;22.00;9.80;;;7.10;99.90;;;;;;5118261;28;20076;-84
2023/11/11 00:23:24;;;;;;;20.30;9.60;;;7.10;99.90;;;;;;5069785;28;20044;-84
2023/11/11 00:25:51;;;;;;;22.25;9.55;;;7.70;99.90;;;;;;5069754;28;20041;-84
2023/11/11 00:28:17;;;;;;;19.55;9.35;;;7.10;99.90;;;;;;5059971;28;20037;-84
2023/11/11 00:30:44;;;;;;;22.33;9.57;;;7.40;99.90;;;;;;5070037;28;20108;-84
2023/11/11 00:33:11;;;;;;;21.23;9.32;;;7.30;99.90;;;;;;5056643;28;20041;-84
2023/11/11 00:35:38;;;;;;;18.27;8.23;;;7.10;99.90;;;;;;5070318;28;20083;-83
2023/11/11 00:38:07;;;;;;;18.80;8.35;;;7.10;99.90;;;;;;5069793;28;20049;-84
2023/11/11 00:40:34;;;;;;;15.32;7.82;;;7.10;99.90;;;;;;5069807;28;20099;-83
2023/11/11 00:43:00;;;;;;;16.13;7.88;;;7.20;99.90;;;;;;5067201;28;20045;-83
2023/11/11 00:45:27;;;;;;;18.90;7.68;;;7.10;99.90;;;;;;5072121;28;20932;-84
2023/11/11 00:47:53;;;;;;;18.00;8.00;;;7.60;99.90;;;;;;5099215;28;20052;-84
2023/11/11 00:50:20;;;;;;;15.95;7.22;;;7.60;99.90;;;;;;5069654;28;20129;-84
2023/11/11 00:52:47;;;;;;;13.82;7.10;;;7.40;99.90;;;;;;5069506;28;20045;-83
2023/11/11 00:55:14;;;;;;;13.77;7.18;;;7.50;99.90;;;;;;5069439;28;20055;-84
2023/11/11 00:57:43;;;;;;;14.23;6.78;;;7.10;99.90;;;;;;5069806;28;20036;-83
2023/11/11 01:00:10;;;;;;;14.48;6.78;;;7.10;99.90;;;;;;5058175;28;20045;-84
2023/11/11 01:02:37;;;;;;;11.00;5.80;;;7.10;99.90;;;;;;5067210;28;20670;-84
2023/11/11 01:05:03;;;;;;;12.25;6.10;;;7.10;99.90;;;;;;5082250;28;20057;-84
2023/11/11 01:07:30;;;;;;;15.30;6.57;;;7.10;99.90;;;;;;5084312;28;20123;-83
2023/11/11 01:09:57;;;;;;;15.50;6.38;;;7.00;99.90;;;;;;5069580;28;20044;-83
2023/11/11 01:12:23;;;;;;;15.50;6.70;;;7.10;99.90;;;;;;5069610;28;20143;-84
2023/11/11 01:14:50;;;;;;;17.23;6.85;;;7.00;99.90;;;;;;5102547;28;20077;-84
2023/11/11 01:17:18;;;;;;;11.43;5.68;;;7.00;99.90;;;;;;5069479;28;20048;-84
2023/11/11 01:19:46;;;;;;;11.75;6.00;;;7.00;99.90;;;;;;5052778;28;20045;-84
2023/11/11 01:22:19;;;;;;;17.35;5.28;;;7.00;99.90;;;;;;5095279;28;20851;-84
2023/11/11 01:24:45;;;;;;;9.23;4.97;;;7.00;99.90;;;;;;5069671;28;20076;-84
2023/11/11 01:27:12;;;;;;;9.95;4.55;;;7.00;99.90;;;;;;5068066;28;20438;-84
2023/11/11 01:29:41;;;;;;;10.55;4.55;;;7.00;99.90;;;;;;5065921;28;20478;-84
2023/11/11 01:32:08;;;;;;;9.60;4.50;;;7.00;99.90;;;;;;5092848;28;20409;-83
2023/11/11 01:34:35;;;;;;;9.93;4.32;;;6.90;99.90;;;;;;5078976;28;20039;-84
2023/11/11 01:37:07;;;;;;;11.30;4.38;;;7.00;99.90;;;;;;5106035;28;20068;-83
2023/11/11 01:39:34;;;;;;;10.80;4.30;;;7.00;99.90;;;;;;5073284;28;20119;-84
2023/11/11 01:42:02;;;;;;;10.88;4.72;;;6.90;99.90;;;;;;5065370;28;20127;-84
2023/11/11 01:44:29;;;;;;;9.65;4.55;;;6.90;99.90;;;;;;5070839;28;20159;-84
2023/11/11 01:46:55;;;;;;;8.23;4.30;;;6.90;99.90;;;;;;5064202;28;20046;-82
2023/11/11 01:49:23;;;;;;;9.65;4.50;;;6.90;99.90;;;;;;5083318;28;20071;-84
2023/11/11 01:51:52;;;;;;;10.90;4.57;;;6.90;99.90;;;;;;5063605;28;20037;-84
2023/11/11 01:54:21;;;;;;;11.23;4.20;;;6.90;99.90;;;;;;5082143;28;20045;-83
2023/11/11 01:56:47;;;;;;;9.52;4.35;;;6.90;99.90;;;;;;5105588;28;20139;-84
2023/11/11 01:59:17;;;;;;;13.63;4.57;;;6.90;99.90;;;;;;5072193;28;20115;-84
2023/11/11 02:01:47;;;;;;;10.15;4.43;;;6.80;99.90;;;;;;5072427;28;20155;-83
2023/11/11 02:04:14;;;;;;;9.00;4.07;;;6.80;99.90;;;;;;5092073;28;20061;-83
2023/11/11 02:06:42;;;;;;;10.85;4.30;;;6.90;99.90;;;;;;5072442;28;20887;-83
2023/11/11 02:09:08;;;;;;;13.73;4.20;;;7.00;99.90;;;;;;5066549;28;20076;-83
2023/11/11 02:11:35;;;;;;;9.93;3.95;;;7.00;99.90;;;;;;5078181;28;20072;-83
2023/11/11 02:14:02;;;;;;;11.68;4.30;;;6.70;99.90;;;;;;5098440;28;20033;-84
2023/11/11 02:16:32;;;;;;;11.00;3.47;;;6.70;99.90;;;;;;5068660;28;20082;-83
2023/11/11 02:18:59;;;;;;;10.95;3.80;;;6.60;99.90;;;;;;5093060;28;20124;-83
2023/11/11 02:21:26;;;;;;;7.65;3.60;;;6.60;99.90;;;;;;5071632;28;20137;-83
2023/11/11 02:23:54;;;;;;;10.63;3.40;;;6.60;99.90;;;;;;5085598;28;20048;-83
2023/11/11 02:26:21;;;;;;;8.93;3.40;;;6.60;99.90;;;;;;5071983;28;20071;-84
2023/11/11 02:28:47;;;;;;;7.95;3.13;;;6.60;99.90;;;;;;5071032;28;20049;-83
2023/11/11 02:31:14;;;;;;;9.82;3.53;;;6.60;99.90;;;;;;5068533;28;20481;-84
2023/11/11 02:33:41;;;;;;;8.10;2.88;;;6.70;99.90;;;;;;5104184;28;20124;-83
2023/11/11 02:36:07;;;;;;;8.63;2.42;;;6.60;99.90;;;;;;5071997;28;20098;-83
2023/11/11 02:38:34;;;;;;;6.13;2.22;;;6.50;99.90;;;;;;5071641;28;20051;-82
2023/11/11 02:41:01;;;;;;;5.45;2.40;;;6.50;99.90;;;;;;5105174;28;20037;-83
2023/11/11 02:43:28;;;;;;;10.45;2.10;;;6.50;99.90;;;;;;5070240;28;20045;-83
2023/11/11 02:45:54;;;;;;;3.53;1.20;;;6.50;99.90;;;;;;5071692;28;20041;-83
2023/11/11 02:48:21;;;;;;;4.68;1.20;;;6.50;99.90;;;;;;5071875;28;20047;-83
2023/11/11 02:50:48;;;;;;;4.47;1.38;;;7.00;99.90;;;;;;5070624;28;20036;-83
2023/11/11 02:53:14;;;;;;;3.70;1.45;;;7.30;99.90;;;;;;5067925;28;20417;-83
2023/11/11 02:55:41;;;;;;;4.50;2.08;;;6.60;99.90;;;;;;5097635;28;20056;-83
2023/11/11 02:58:08;;;;;;;5.53;1.70;;;6.50;99.90;;;;;;5072686;28;20055;-83
2023/11/11 03:00:39;;;;;;;7.25;2.50;;;6.50;99.90;;;;;;5097786;28;20100;-83
2023/11/11 03:03:07;;;;;;;4.15;1.08;;;6.50;99.90;;;;;;5068139;28;20047;-83
2023/11/11 03:05:33;;;;;;;4.43;1.08;;;6.50;99.90;;;;;;5100930;28;20776;-83
2023/11/11 03:08:00;;;;;;;8.35;0.85;;;6.50;99.90;;;;;;5110800;28;20038;-84
2023/11/11 03:10:27;;;;;;;1.73;0.80;;;6.50;99.90;;;;;;5068059;28;20037;-84
2023/11/11 03:12:54;;;;;;;9.07;1.10;;;6.50;99.90;;;;;;5068037;28;20067;-83
2023/11/11 03:15:22;;;;;;;6.00;0.90;;;6.40;99.90;;;;;;5085401;28;20208;-83
2023/11/11 03:17:49;;;;;;;2.75;0.80;;;6.40;99.90;;;;;;5071222;28;20083;-83
2023/11/11 03:20:16;;;;;;;4.60;0.90;;;6.40;99.90;;;;;;5071347;28;20033;-84
2023/11/11 03:22:42;;;;;;;3.17;0.65;;;6.90;99.90;;;;;;5057847;28;20044;-84
2023/11/11 03:25:11;;;;;;;4.05;1.00;;;6.30;99.90;;;;;;5070942;28;20056;-84
2023/11/11 03:27:38;;;;;;;2.38;1.00;;;6.30;99.90;;;;;;5090978;28;20044;-84
2023/11/11 03:30:06;;;;;;;4.43;0.80;;;6.80;99.90;;;;;;5070724;28;20171;-83
2023/11/11 03:32:32;;;;;;;1.67;0.68;;;6.30;99.90;;;;;;5112054;28;20033;-83
2023/11/11 03:34:59;;;;;;;2.22;0.95;;;6.30;99.90;;;;;;5054360;28;20125;-84
2023/11/11 03:37:26;;;;;;;6.40;0.95;;;6.70;99.90;;;;;;5093803;28;20037;-83
2023/11/11 03:39:53;;;;;;;3.25;0.80;;;7.20;99.90;;;;;;5070529;28;20043;-84
2023/11/11 03:42:20;;;;;;;3.38;0.80;;;6.50;99.90;;;;;;5070570;28;20120;-84
2023/11/11 03:44:49;;;;;;;6.00;0.90;;;6.30;99.90;;;;;;5082776;28;20087;-83
2023/11/11 03:47:16;;;;;;;3.05;0.70;;;6.30;99.90;;;;;;5067079;28;20048;-84
2023/11/11 03:49:43;;;;;;;2.42;0.80;;;7.10;99.90;;;;;;5113702;28;20034;-84
2023/11/11 03:52:09;;;;;;;1.95;0.80;;;6.40;99.90;;;;;;5066971;28;20095;-84
2023/11/11 03:54:36;;;;;;;5.18;1.02;;;6.30;99.90;;;;;;5083003;28;20441;-84
2023/11/11 03:57:03;;;;;;;4.70;0.90;;;6.30;99.90;;;;;;5057724;28;20076;-84
2023/11/11 03:59:34;;;;;;;3.38;0.70;;;6.40;99.90;;;;;;5080123;28;20048;-84
2023/11/11 04:02:00;;;;;;;5.00;0.85;;;6.40;99.90;;;;;;5064093;28;20076;-84
2023/11/11 04:04:29;;;;;;;2.78;0.80;;;6.30;99.90;;;;;;5062651;28;20739;-84
2023/11/11 04:06:55;;;;;;;4.25;0.80;;;6.30;99.90;;;;;;5063140;28;20049;-84
2023/11/11 04:09:22;;;;;;;3.40;0.77;;;6.30;99.90;;;;;;5071378;28;20563;-84
2023/11/11 04:11:49;;;;;;;5.03;1.13;;;6.30;99.90;;;;;;5098446;28;20553;-84
2023/11/11 04:14:17;;;;;;;2.33;0.77;;;6.30;99.90;;;;;;5070192;28;20104;-84
2023/11/11 04:16:44;;;;;;;3.90;0.70;;;6.30;99.90;;;;;;5069861;28;20037;-84
2023/11/11 04:19:11;;;;;;;1.95;0.70;;;6.30;99.90;;;;;;5056906;28;20037;-84
2023/11/11 04:21:38;;;;;;;3.90;0.60;;;6.80;99.90;;;;;;5069847;28;20045;-84
2023/11/11 04:24:05;;;;;;;2.05;0.55;;;6.20;99.90;;;;;;5084802;28;20048;-84
2023/11/11 04:26:31;;;;;;;3.28;1.15;;;6.20;99.90;;;;;;5071350;28;20122;-84
2023/11/11 04:28:59;;;;;;;1.15;0.60;;;6.20;99.90;;;;;;5068668;28;20595;-84
2023/11/11 04:31:27;;;;;;;1.33;0.40;;;6.60;99.90;;;;;;5078875;28;20074;-83
2023/11/11 04:33:53;;;;;;;3.97;0.50;;;6.20;99.90;;;;;;5069799;28;20045;-83
2023/11/11 04:36:22;;;;;;;4.75;0.70;;;6.30;99.90;;;;;;5105896;28;20064;-83
2023/11/11 04:38:49;;;;;;;0.95;0.60;;;6.20;99.90;;;;;;5091015;28;20052;-83
2023/11/11 04:41:17;;;;;;;2.83;0.68;;;6.20;99.90;;;;;;5119935;28;20055;-83
2023/11/11 04:43:44;;;;;;;2.92;0.50;;;6.20;99.90;;;;;;5069517;28;20446;-84
2023/11/11 04:46:11;;;;;;;2.90;0.47;;;6.30;99.90;;;;;;5054351;28;20044;-84
2023/11/11 04:48:37;;;;;;;2.25;0.65;;;6.20;99.90;;;;;;5082562;28;20390;-83
2023/11/11 04:51:05;;;;;;;3.67;0.60;;;6.30;99.90;;;;;;5085541;28;20041;-83
2023/11/11 04:53:31;;;;;;;2.33;0.32;;;6.90;99.90;;;;;;5069341;28;20047;-83
2023/11/11 04:55:58;;;;;;;1.30;0.43;;;6.80;99.90;;;;;;5066148;28;20037;-83
2023/11/11 04:58:25;;;;;;;3.47;0.60;;;6.30;99.90;;;;;;5060345;28;20072;-84
2023/11/11 05:00:51;;;;;;;2.90;0.60;;;6.20;99.90;;;;;;5069414;28;20044;-83
2023/11/11 05:03:19;;;;;;;2.58;0.40;;;6.20;99.90;;;;;;5103077;28;20068;-84
2023/11/11 05:05:46;;;;;;;2.13;0.40;;;6.20;99.90;;;;;;5068963;28;20076;-83
2023/11/11 05:08:12;;;;;;;1.95;0.50;;;6.20;99.90;;;;;;5072661;28;20033;-84
2023/11/11 05:10:39;;;;;;;0.95;0.40;;;7.00;99.90;;;;;;5060235;28;20052;-84
2023/11/11 05:13:08;;;;;;;3.92;0.55;;;6.30;99.90;;;;;;5123467;28;20033;-83
2023/11/11 05:15:58;;;;;;;2.33;0.73;;;6.40;99.90;;;;;;5060368;28;20040;-83
2023/11/11 05:18:26;;;;;;;3.28;0.50;;;6.30;99.90;;;;;;5065417;28;20413;-84
2023/11/11 05:20:53;;;;;;;2.30;0.52;;;6.30;99.90;;;;;;5106337;28;20037;-84
2023/11/11 05:23:20;;;;;;;3.65;0.70;;;7.00;99.90;;;;;;5073527;28;20044;-84
2023/11/11 05:25:46;;;;;;;2.42;0.63;;;6.30;99.90;;;;;;5073107;28;20043;-84
2023/11/11 05:28:13;;;;;;;1.73;0.50;;;7.00;99.90;;;;;;5122526;28;20045;-83
2023/11/11 05:30:40;;;;;;;1.58;0.47;;;6.30;99.90;;;;;;5073587;28;20034;-83
2023/11/11 05:33:07;;;;;;;1.50;0.55;;;6.30;99.90;;;;;;5070982;28;20520;-83
2023/11/11 05:35:33;;;;;;;2.42;0.50;;;6.40;99.90;;;;;;5069282;28;20045;-83
2023/11/11 05:38:00;;;;;;;3.25;1.27;;;6.30;99.90;;;;;;5054393;28;20048;-83
2023/11/11 05:40:29;;;;;;;2.10;0.57;;;6.70;99.90;;;;;;5089968;28;20040;-84
2023/11/11 05:42:57;;;;;;;1.95;0.47;;;6.30;99.90;;;;;;5070460;28;20077;-84
2023/11/11 05:45:24;;;;;;;2.40;0.60;;;7.00;99.90;;;;;;5069570;28;20044;-83
2023/11/11 05:47:50;;;;;;;2.25;0.50;;;6.30;99.90;;;;;;5102038;28;20783;-83
2023/11/11 05:50:17;;;;;;;1.58;0.50;;;6.30;99.90;;;;;;5072736;28;20043;-83
2023/11/11 05:52:44;;;;;;;2.75;0.47;;;6.30;99.90;;;;;;5097810;28;20032;-84
2023/11/11 05:55:11;;;;;;;0.68;0.40;;;7.20;99.90;;;;;;5072609;28;20041;-83
2023/11/11 05:57:38;;;;;;;1.75;0.50;;;7.10;99.90;;;;;;5105722;28;20719;-83
2023/11/11 06:00:10;;;;;;;1.08;0.63;;;6.90;99.90;;;;;;5063799;28;20455;-83
2023/11/11 06:02:38;;;;;;;2.85;0.52;;;6.30;99.90;;;;;;5071627;28;20049;-84
2023/11/11 06:05:05;;;;;;;2.35;1.15;;;6.90;99.90;;;;;;5071628;28;20060;-84
2023/11/11 06:07:32;;;;;;;3.72;0.50;;;6.30;99.90;;;;;;5087996;28;20116;-84
2023/11/11 06:09:58;;;;;;;1.08;0.60;;;6.30;99.90;;;;;;5071677;28;20029;-84
2023/11/11 06:12:25;;;;;;;0.47;0.40;;;6.30;99.90;;;;;;5108614;28;20178;-84
2023/11/11 06:14:52;;;;;;;4.32;0.63;;;6.30;99.90;;;;;;5096787;28;20037;-84
2023/11/11 06:17:19;;;;;;;0.57;0.40;;;6.30;99.90;;;;;;5072235;28;20049;-85
2023/11/11 06:19:45;;;;;;;1.38;0.50;;;6.60;99.90;;;;;;5070569;28;20047;-84
2023/11/11 06:22:12;;;;;;;2.90;0.80;;;7.10;99.90;;;;;;5072061;28;20045;-84
2023/11/11 06:24:39;;;;;;;1.42;0.50;;;6.30;99.90;;;;;;5072429;28;20041;-85
2023/11/11 06:27:09;;;;;;;2.08;0.60;;;7.10;99.90;;;;;;5059155;28;20073;-84
2023/11/11 06:29:36;;;;;;;3.30;0.50;;;6.30;99.90;;;;;;5059398;28;20037;-84
2023/11/11 06:32:03;;;;;;;2.22;0.40;;;6.40;99.90;;;;;;5068416;28;20148;-84
2023/11/11 06:34:30;;;;;;;4.55;0.60;;;6.30;99.90;;;;;;5051398;28;20414;-84
2023/11/11 06:36:57;;;;;;;5.20;0.63;;;6.30;99.90;;;;;;5083891;28;20048;-84
2023/11/11 06:39:24;;;;;;;1.23;0.60;;;6.40;99.90;;;;;;5098325;28;20091;-84
2023/11/11 06:41:50;;;;;;;0.88;0.50;;;6.40;99.90;;;;;;5068756;28;20500;-84
2023/11/11 06:44:17;;;;;;;1.58;0.68;;;6.80;99.90;;;;;;5081255;28;20099;-84
2023/11/11 06:46:43;;;;;;;4.35;0.70;;;6.30;99.90;;;;;;5068039;28;20053;-84
2023/11/11 06:49:11;;;;;;;2.45;0.65;;;7.10;99.90;;;;;;5071078;28;20071;-83
2023/11/11 06:51:37;;;;;;;1.40;0.60;;;6.30;99.90;;;;;;5071555;28;20041;-84
2023/11/11 06:54:05;;;;;;;2.17;0.50;;;6.30;99.90;;;;;;5070776;28;20047;-84
2023/11/11 06:56:31;;;;;;;2.95;0.50;;;6.30;99.90;;;;;;5071073;28;20078;-84
2023/11/11 06:58:58;;;;;;;1.60;0.63;;;6.90;99.90;;;;;;5070899;28;20504;-84
2023/11/11 07:01:25;;;;;;;2.15;0.60;;;7.10;99.90;;;;;;5071253;28;20055;-84
2023/11/11 07:03:52;;;;;;;2.45;0.43;;;6.40;99.90;;;;;;5070413;28;20124;-83
2023/11/11 07:06:25;;;;;;;2.53;0.40;;;6.80;99.90;;;;;;5072234;28;20125;-83
2023/11/11 07:08:52;;;;;;;1.40;0.47;;;6.30;99.90;;;;;;5094104;28;20033;-84
2023/11/11 07:11:19;;;;;;;2.38;0.50;;;6.40;99.90;;;;;;5057776;28;20044;-83
2023/11/11 07:13:46;;;;;;;1.25;0.70;;;6.40;99.90;;;;;;5070455;28;20046;-84
2023/11/11 07:16:17;;;;;;;3.90;0.55;;;6.40;99.90;;;;;;5067138;28;20040;-84
2023/11/11 07:18:45;;;;;;;1.60;0.50;;;6.40;99.90;;;;;;5068132;28;20037;-84
2023/11/11 07:21:20;;;;;;;1.65;0.52;;;6.40;99.90;;;;;;5084705;28;20037;-84
2023/11/11 07:23:46;;;;;;;2.50;0.60;;;6.40;99.90;;;;;;5087576;28;20432;-84
2023/11/11 07:26:15;;;;;;;1.15;0.63;;;6.40;99.90;;;;;;5069427;28;20099;-84
2023/11/11 07:28:45;;;;;;;4.72;0.82;;;6.40;99.90;;;;;;5083726;28;20430;-84
2023/11/11 07:31:17;;;;;;;1.13;0.50;;;6.40;99.90;;;;;;5072248;28;20033;-84
2023/11/11 07:33:43;;;;;;;1.35;0.50;;;6.40;99.90;;;;;;5067387;28;20049;-84
2023/11/11 07:36:11;;;;;;;1.17;0.52;;;6.40;99.90;;;;;;5079163;28;20041;-84
2023/11/11 07:38:41;;;;;;;2.72;0.60;;;6.50;99.90;;;;;;5109564;28;20046;-84
2023/11/11 07:41:09;;;;;;;1.60;0.55;;;7.30;99.90;;;;;;5091896;28;20029;-84
2023/11/11 07:43:36;;;;;;;2.03;0.70;;;6.40;99.90;;;;;;5062718;28;20059;-83
2023/11/11 07:46:06;;;;;;;2.05;0.80;;;6.40;99.90;;;;;;5075706;28;20036;-84
2023/11/11 07:48:33;;;;;;;4.15;0.80;;;6.90;99.90;;;;;;5086830;28;20033;-84
2023/11/11 07:51:01;;;;;;;1.40;0.70;;;6.70;99.90;;;;;;5103281;28;20079;-84
2023/11/11 07:53:28;;;;;;;3.72;0.52;;;6.50;99.90;;;;;;5056288;28;20049;-85
2023/11/11 07:55:55;;;;;;;1.45;0.65;;;6.40;99.90;;;;;;5117122;28;20033;-84
2023/11/11 07:58:22;;;;;;;4.43;0.70;;;6.70;99.90;;;;;;5090275;28;20045;-84
2023/11/11 08:00:50;;;;;;;2.97;0.90;;;6.60;99.90;;;;;;5074735;28;20119;-84
2023/11/11 08:03:18;;;;;;;3.30;0.70;;;6.40;99.90;;;;;;5069287;28;20048;-84
2023/11/11 08:05:45;;;;;;;3.22;0.80;;;7.20;99.90;;;;;;5068927;28;20529;-85
2023/11/11 08:08:13;;;;;;;5.13;1.38;;;6.40;99.90;;;;;;5058986;28;20452;-85
2023/11/11 08:10:40;;;;;;;7.78;1.02;;;7.40;99.90;;;;;;5072707;28;20044;-84
2023/11/11 08:13:07;;;;;;;4.10;1.30;;;6.40;99.90;;;;;;5054999;28;20437;-85
2023/11/11 08:15:34;;;;;;;6.32;1.38;;;6.40;99.90;;;;;;5066110;28;20048;-85
2023/11/11 08:18:00;;;;;;;3.55;1.10;;;6.30;99.90;;;;;;5071279;28;20033;-85
2023/11/11 08:20:27;;;;;;;7.35;1.40;;;6.30;99.90;;;;;;5109175;28;20044;-85
2023/11/11 08:22:54;;;;;;;4.85;0.80;;;6.30;99.90;;;;;;5098472;28;20449;-84
2023/11/11 08:25:22;;;;;;;5.25;1.00;;;6.40;99.90;;;;;;5077014;28;20049;-84
2023/11/11 08:27:52;;;;;;;2.78;0.90;;;6.40;99.90;;;;;;5074320;28;20038;-84
2023/11/11 08:30:18;;;;;;;5.72;1.30;;;6.80;99.90;;;;;;5074099;28;20113;-85
2023/11/11 08:32:45;;;;;;;6.88;1.38;;;7.30;99.90;;;;;;5074635;28;20029;-84
2023/11/11 08:35:15;;;;;;;4.85;1.45;;;6.60;99.90;;;;;;5079191;28;20446;-84
2023/11/11 08:37:43;;;;;;;3.50;1.00;;;6.90;99.90;;;;;;5094337;28;20071;-84
2023/11/11 08:40:11;;;;;;;8.55;1.67;;;6.50;99.90;;;;;;5081153;28;20042;-84
2023/11/11 08:42:39;;;;;;;4.28;0.93;;;6.60;99.90;;;;;;5056525;28;20049;-84
2023/11/11 08:45:09;;;;;;;7.88;1.23;;;6.70;99.90;;;;;;5073496;28;20806;-84
2023/11/11 08:47:37;;;;;;;4.43;1.17;;;6.50;99.90;;;;;;5059279;28;20044;-85
2023/11/11 08:50:06;;;;;;;5.20;1.10;;;7.00;99.90;;;;;;5065332;28;20512;-84
2023/11/11 08:52:41;;;;;;;3.45;0.88;;;6.60;99.90;;;;;;5073499;28;20536;-84
2023/11/11 08:55:09;;;;;;;6.22;0.80;;;6.90;99.90;;;;;;5065474;28;20395;-84
2023/11/11 08:57:36;;;;;;;3.67;0.80;;;6.60;99.90;;;;;;5058428;28;20087;-84
2023/11/11 09:00:12;;;;;;;3.15;0.75;;;7.30;99.90;;;;;;5098898;28;20117;-84
2023/11/11 09:02:39;;;;;;;2.58;0.90;;;6.60;99.90;;;;;;5069348;28;20044;-84
2023/11/11 09:05:06;;;;;;;2.97;0.68;;;6.80;99.90;;;;;;5102620;28;20049;-83
2023/11/11 09:07:36;;;;;;;2.50;0.90;;;6.60;99.90;;;;;;5107840;28;20053;-84
2023/11/11 09:10:03;;;;;;;3.72;1.00;;;6.60;99.90;;;;;;5109178;28;20043;-84
2023/11/11 09:12:30;;;;;;;2.45;0.95;;;6.70;99.90;;;;;;5077556;28;20044;-83
2023/11/11 09:14:57;;;;;;;3.45;1.00;;;6.70;99.90;;;;;;5075291;28;20041;-84
2023/11/11 09:17:24;;;;;;;3.08;0.73;;;6.60;99.90;;;;;;5101896;28;20408;-84
2023/11/11 09:19:51;;;;;;;2.40;0.75;;;6.70;99.90;;;;;;5066318;28;20041;-84
2023/11/11 09:22:18;;;;;;;2.70;0.85;;;6.70;99.90;;;;;;5074859;28;20037;-84
2023/11/11 09:24:45;;;;;;;3.17;0.90;;;7.50;99.90;;;;;;5065954;28;20088;-83
2023/11/11 09:27:12;;;;;;;2.00;0.90;;;6.80;99.90;;;;;;5103788;28;20037;-84
2023/11/11 09:29:38;;;;;;;2.33;0.88;;;6.80;99.90;;;;;;5083637;28;20034;-82
2023/11/11 09:32:05;;;;;;;2.00;1.02;;;6.80;99.90;;;;;;5094058;28;20041;-83
2023/11/11 09:34:32;;;;;;;5.90;0.80;;;6.90;99.90;;;;;;5064238;28;20045;-83
2023/11/11 09:36:59;;;;;;;2.50;0.80;;;6.80;99.90;;;;;;5119069;28;20075;-84
2023/11/11 09:39:25;;;;;;;2.35;1.08;;;7.50;99.90;;;;;;5065121;28;20042;-84
2023/11/11 09:41:52;;;;;;;3.25;1.70;;;6.90;99.90;;;;;;5076577;28;20041;-85
2023/11/11 09:44:19;;;;;;;3.10;1.40;;;6.90;99.90;;;;;;5085419;28;20041;-84
2023/11/11 09:46:56;;;;;;;5.63;2.17;;;6.90;99.90;;;;;;5068339;28;20102;-84
2023/11/11 09:49:27;;;;;;;4.28;2.17;;;6.90;99.90;;;;;;5068412;28;20037;-85
2023/11/11 09:51:54;;;;;;;2.20;1.20;;;6.90;99.90;;;;;;5039193;28;20033;-84
2023/11/11 09:54:22;;;;;;;4.88;1.70;;;7.00;99.90;;;;;;5071826;28;20065;-84
2023/11/11 09:56:50;;;;;;;6.53;2.10;;;7.00;99.90;;;;;;5058707;28;20041;-84
2023/11/11 09:59:19;;;;;;;5.90;2.00;;;7.40;99.90;;;;;;5072229;28;20529;-84
2023/11/11 10:01:46;;;;;;;4.25;1.60;;;7.10;99.90;;;;;;5072339;28;20052;-84
2023/11/11 10:04:13;;;;;;;3.67;1.50;;;7.10;99.90;;;;;;5122183;28;20524;-84
2023/11/11 10:06:41;;;;;;;6.57;1.52;;;7.10;99.90;;;;;;5122951;28;20037;-84
2023/11/11 10:09:12;;;;;;;5.95;1.60;;;7.20;99.90;;;;;;5095941;28;20045;-84
2023/11/11 10:11:39;;;;;;;5.30;1.60;;;7.10;99.90;;;;;;5082135;28;20053;-84
2023/11/11 10:14:07;;;;;;;4.50;1.40;;;7.20;99.90;;;;;;5097081;28;20063;-84
2023/11/11 10:16:37;;;;;;;3.78;1.23;;;7.20;99.90;;;;;;5072075;28;20036;-84
2023/11/11 10:19:10;;;;;;;2.40;1.20;;;7.80;99.90;;;;;;5059245;28;20041;-84
2023/11/11 10:21:38;;;;;;;5.93;1.30;;;7.30;99.90;;;;;;5093018;28;20041;-84
2023/11/11 10:24:09;;;;;;;3.70;1.50;;;7.40;99.90;;;;;;5120910;28;20136;-84
2023/11/11 10:26:37;;;;;;;1.88;0.85;;;7.30;99.90;;;;;;5068466;28;20088;-84
2023/11/11 10:29:08;;;;;;;3.95;0.88;;;7.40;99.90;;;;;;5069500;28;20033;-84
2023/11/11 10:31:36;;;;;;;2.42;0.80;;;7.70;99.90;;;;;;5076630;28;20037;-84
2023/11/11 10:34:03;;;;;;;1.23;0.60;;;7.70;99.90;;;;;;5072193;28;20032;-84
2023/11/11 10:36:43;;;;;;;1.63;0.80;;;7.60;99.90;;;;;;5119762;28;20047;-84
2023/11/11 10:39:10;;;;;;;3.22;0.95;;;7.80;99.90;;;;;;5068419;28;20038;-84
2023/11/11 10:41:37;;;;;;;4.85;1.45;;;7.90;99.90;;;;;;5102537;28;20128;-84
2023/11/11 10:44:07;;;;;;;1.65;0.60;;;8.40;99.90;;;;;;5071973;28;20124;-85
2023/11/11 10:46:39;;;;;;;1.95;0.70;;;7.80;99.90;;;;;;5071410;28;20501;-84
2023/11/11 10:49:09;;;;;;;5.82;0.93;;;7.80;99.90;;;;;;5071811;28;20040;-84
2023/11/11 10:51:36;;;;;;;5.35;1.50;;;7.70;99.90;;;;;;5071700;28;20040;-84
2023/11/11 10:54:03;;;;;;;3.58;0.77;;;7.70;99.90;;;;;;5058380;28;20037;-83
2023/11/11 10:56:32;;;;;;;1.00;0.60;;;7.70;99.90;;;;;;5071372;28;20060;-80
2023/11/11 10:59:03;;;;;;;2.13;0.50;;;8.00;99.90;;;;;;5069799;28;20131;-81
2023/11/11 11:01:35;;;;;;;2.80;0.90;;;7.60;99.90;;;;;;5084543;28;20041;-81
2023/11/11 11:04:03;;;;;;;1.88;0.82;;;7.60;99.90;;;;;;5080208;28;20057;-85
2023/11/11 11:06:44;;;;;;;1.33;0.80;;;7.60;99.90;;;;;;5084843;28;20421;-86
2023/11/11 11:09:21;;;;;;;6.07;1.05;;;7.60;99.90;;;;;;5090727;28;20033;-86
2023/11/11 11:12:05;;;;;;;5.15;1.17;;;7.70;99.90;;;;;;5114652;28;20819;-87
2023/11/11 11:14:39;;;;;;;9.43;2.63;;;7.70;99.90;;;;;;5087792;28;20045;-87
2023/11/11 11:17:08;;;;;;;5.13;1.33;;;7.70;99.90;;;;;;5060267;28;20048;-87
2023/11/11 11:19:52;;;;;;;6.93;1.88;;;7.70;99.90;;;;;;5067122;28;20041;-87
2023/11/11 11:22:23;;;;;;;4.28;1.00;;;7.70;99.90;;;;;;5074811;28;20493;-87
2023/11/11 11:24:50;;;;;;;5.90;1.10;;;8.00;99.90;;;;;;5070641;28;20037;-87
2023/11/11 11:27:18;;;;;;;4.50;1.00;;;7.80;99.90;;;;;;5069866;28;20184;-86
2023/11/11 11:29:45;;;;;;;4.38;1.40;;;7.80;99.90;;;;;;5072919;28;20105;-86
2023/11/11 11:32:12;;;;;;;5.07;1.20;;;7.80;99.90;;;;;;5090986;28;20034;-86
2023/11/11 11:34:41;;;;;;;4.15;1.33;;;7.70;99.90;;;;;;5076044;28;20033;-87
2023/11/11 11:37:12;;;;;;;2.75;0.90;;;7.70;99.90;;;;;;5091484;28;20044;-87
2023/11/11 11:40:12;;;;;;;4.13;1.23;;;7.60;99.90;;;;;;5071137;28;20055;-87
2023/11/11 11:42:40;;;;;;;3.20;1.00;;;7.60;99.90;;;;;;5057284;28;20397;-87
2023/11/11 11:45:08;;;;;;;5.53;1.90;;;8.00;99.90;;;;;;5084451;28;20033;-87
2023/11/11 11:47:35;;;;;;;3.80;1.10;;;7.50;99.90;;;;;;5061945;28;20094;-87
2023/11/11 11:50:03;;;;;;;4.78;1.45;;;7.90;99.90;;;;;;5070813;28;20504;-86
2023/11/11 11:52:30;;;;;;;5.20;1.70;;;7.50;99.90;;;;;;5059857;28;20041;-87
2023/11/11 11:54:57;;;;;;;10.50;1.40;;;7.50;99.90;;;;;;5082138;28;20818;-87
2023/11/11 11:57:24;;;;;;;5.32;1.50;;;7.50;99.90;;;;;;5096291;28;20040;-88
2023/11/11 12:00:09;;;;;;;4.07;1.50;;;7.50;99.90;;;;;;5065991;28;20034;-87
2023/11/11 12:02:37;;;;;;;3.92;1.20;;;7.50;99.90;;;;;;5081150;28;20041;-88
2023/11/11 12:05:08;;;;;;;2.42;0.98;;;7.50;99.90;;;;;;5070308;28;20115;-86
2023/11/11 12:07:38;;;;;;;2.88;1.13;;;7.50;99.90;;;;;;5080759;28;20041;-87
2023/11/11 12:10:09;;;;;;;2.65;1.23;;;7.70;99.90;;;;;;5067221;28;20037;-87
2023/11/11 12:12:35;;;;;;;3.47;1.05;;;7.60;99.90;;;;;;5079309;28;20493;-87
2023/11/11 12:15:12;;;;;;;4.00;1.52;;;8.10;99.90;;;;;;5062692;28;20103;-86
2023/11/11 12:17:40;;;;;;;2.95;1.48;;;7.60;99.90;;;;;;5075202;28;20137;-87
2023/11/11 12:20:07;;;;;;;3.80;1.25;;;7.60;99.90;;;;;;5067607;28;20529;-87
2023/11/11 12:22:35;;;;;;;3.13;1.20;;;7.60;99.90;;;;;;5075007;28;20033;-87
2023/11/11 12:25:02;;;;;;;4.65;1.42;;;8.50;99.90;;;;;;5071106;28;20036;-87
2023/11/11 12:27:29;;;;;;;3.90;1.60;;;7.60;99.90;;;;;;5067855;28;20513;-88
2023/11/11 12:29:57;;;;;;;6.15;1.52;;;7.60;99.90;;;;;;5069001;28;20041;-87
2023/11/11 12:32:23;;;;;;;5.18;1.55;;;7.60;99.90;;;;;;5067837;28;20084;-88
2023/11/11 12:34:51;;;;;;;5.25;1.63;;;8.20;99.90;;;;;;5052736;28;20462;-88
2023/11/11 12:37:21;;;;;;;4.00;1.00;;;7.60;99.90;;;;;;5070568;28;20124;-88
2023/11/11 12:39:52;;;;;;;3.88;0.90;;;7.70;99.90;;;;;;5084272;28;20482;-88
2023/11/11 12:42:27;;;;;;;2.58;0.95;;;7.50;99.90;;;;;;5078134;28;20048;-87
2023/11/11 12:44:54;;;;;;;4.38;1.05;;;8.10;99.90;;;;;;5104144;28;20071;-87
2023/11/11 12:47:21;;;;;;;3.47;1.08;;;7.50;99.90;;;;;;5070595;28;20073;-86
2023/11/11 12:49:50;;;;;;;1.58;0.85;;;7.50;99.90;;;;;;5069758;28;20102;-87
2023/11/11 12:52:17;;;;;;;3.65;1.13;;;7.50;99.90;;;;;;5070173;28;20097;-86
2023/11/11 12:54:44;;;;;;;4.75;0.90;;;8.00;99.90;;;;;;5063443;28;20049;-87
2023/11/11 12:57:22;;;;;;;4.82;1.00;;;7.60;99.90;;;;;;5076554;28;20042;-86
2023/11/11 12:59:55;;;;;;;4.15;1.08;;;7.90;99.90;;;;;;5111153;28;20055;-86